Atlant Svenja — V7LK2 — position and weather

sailwx.info

Track history (hours):
 
Tides and Currents Weather Stations Pressure Air Temp Water Temp Dewpoint Dewpoint Depression Visibility Wind Speed Wind Dir Waves Ship Positions

Atlant Svenja

Last reported at 2018-Apr-21 02:09 UTC. Time now 2018-Apr-22 10:54 UTC.
Position N 39°31' W 009°50'.

Length 107 m; draft 7.1 m.

Type: Cargo ship. MMSI: 538002759.

Date/timePositionNaut miles runAvg speedWind from/ knotsBaromVisibWave heightAir tempDewpointWater temp
2018-Apr-21 02:09N 39°31' W 009°50'1 8.8
2018-Apr-21 02:00N 39°29' W 009°50'4 8.5
2018-Apr-21 01:29N 39°25' W 009°50'4 8.5
2018-Apr-21 01:00N 39°21' W 009°50'4 8.6
2018-Apr-21 00:31N 39°17' W 009°50'4 8.5
2018-Apr-21 00:00N 39°12' W 009°50'4 8.5
2018-Apr-20 23:30N 39°08' W 009°50'4 8.5
2018-Apr-20 23:01N 39°04' W 009°50'4 8.5
2018-Apr-20 22:30N 38°60' W 009°50'4 8.2
2018-Apr-20 22:00N 38°56' W 009°50'4 7.7
2018-Apr-20 21:31N 38°52' W 009°50'4 7.6
2018-Apr-20 21:01N 38°48' W 009°50'4 7.5
2018-Apr-20 20:31N 38°44' W 009°50'4 7.9
2018-Apr-20 20:00N 38°40' W 009°49'4 8.1
2018-Apr-20 19:31N 38°36' W 009°48'4 7.9
2018-Apr-20 19:00N 38°32' W 009°47'4 8.1
2018-Apr-20 18:30N 38°29' W 009°46'4 8.0
2018-Apr-20 18:00N 38°25' W 009°45'4 8.1
2018-Apr-20 17:30N 38°21' W 009°43'4 8.0
2018-Apr-20 17:01N 38°17' W 009°42'5 7.8
2018-Apr-20 16:22N 38°12' W 009°41'5 7.2
2018-Apr-20 15:39N 38°07' W 009°40'5 7.2
2018-Apr-20 15:01N 38°02' W 009°39'0 7.4
2018-Apr-20 14:59N 38°02' W 009°39'4 7.5
2018-Apr-20 14:30N 37°59' W 009°38'4 7.6
2018-Apr-20 14:00N 37°55' W 009°37'4 8.2
2018-Apr-20 13:30N 37°51' W 009°36'4 8.0
2018-Apr-20 13:00N 37°47' W 009°35'4 8.6
2018-Apr-20 12:30N 37°43' W 009°34'4 8.6
2018-Apr-20 12:00N 37°38' W 009°33'216 8.2
2018-Apr-19 09:43N 35°59' W 005°33'8 8.5
2018-Apr-19 08:48N 36°01' W 005°24'2 8.1
2018-Apr-19 08:30N 36°02' W 005°21'219 8.8
2018-Apr-18 07:35N 37°14' W 001°04'1 9.8
2018-Apr-18 07:28N 37°15' W 001°02'5 9.7
2018-Apr-18 06:58N 37°18' W 000°58'4 9.6
2018-Apr-18 06:30N 37°20' W 000°53'5 9.8
2018-Apr-18 06:00N 37°24' W 000°49'5 9.8
2018-Apr-18 05:30N 37°27' W 000°44'7 9.2
2018-Apr-18 04:47N 37°31' W 000°38'3 9.3
2018-Apr-18 04:30N 37°33' W 000°35'5 9.7
2018-Apr-18 04:00N 37°37' W 000°32'5 9.8
2018-Apr-18 03:30N 37°41' W 000°29'5 9.6
2018-Apr-18 03:00N 37°45' W 000°25'5 9.5
2018-Apr-18 02:27N 37°49' W 000°22'10 9.6
2018-Apr-18 01:22N 37°58' W 000°15'3 9.6
2018-Apr-18 01:00N 38°01' W 000°12'8 9.3
2018-Apr-18 00:11N 38°07' W 000°07'4 9.3
2018-Apr-17 23:48N 38°10' W 000°05'3 9.5
2018-Apr-17 23:26N 38°13' W 000°02'8 9.6
2018-Apr-17 22:38N 38°20' E 000°03'72 8.0
2018-Apr-17 13:35N 39°31' W 000°08'1 9.1
2018-Apr-17 13:27N 39°33' W 000°09'5 9.3
2018-Apr-17 12:57N 39°37' W 000°12'  
2018-Apr-12 22:00N 40°54' E 001°44'5 9.2
2018-Apr-12 21:30N 40°58' E 001°47'5 9.3
2018-Apr-12 21:00N 41°02' E 001°50'5 9.2
2018-Apr-12 20:30N 41°06' E 001°53'5 9.4
2018-Apr-12 20:01N 41°08' E 001°58'5 9.5
2018-Apr-12 19:30N 41°11' E 002°03'5 9.6
2018-Apr-12 19:00N 41°14' E 002°09'4 8.4
2018-Apr-12 18:30N 41°18' E 002°10'3 5.6
2018-Apr-12 18:00N 41°21' E 002°09'0 0.5
2018-Apr-12 17:31N 41°21' E 002°09'0 0.0
2018-Apr-12 17:01N 41°21' E 002°09'0 0.0
2018-Apr-12 16:31N 41°21' E 002°09'0 0.0
2018-Apr-12 16:01N 41°21' E 002°09'0 0.0
2018-Apr-12 15:31N 41°21' E 002°09'0 0.0
2018-Apr-12 15:01N 41°21' E 002°09'0 0.0
2018-Apr-12 14:31N 41°21' E 002°09'0 0.0
2018-Apr-12 14:01N 41°21' E 002°09'0 0.0
2018-Apr-12 13:31N 41°21' E 002°09'0 0.0
2018-Apr-12 13:01N 41°21' E 002°09'0 0.0
2018-Apr-12 12:31N 41°21' E 002°09'0 0.0
2018-Apr-12 12:01N 41°21' E 002°09'0 0.0
2018-Apr-12 11:31N 41°21' E 002°09'0 0.0
2018-Apr-12 11:01N 41°21' E 002°09'0 0.0
2018-Apr-12 10:31N 41°21' E 002°09'0 0.0
2018-Apr-12 10:01N 41°21' E 002°09'0 0.0
2018-Apr-12 09:25N 41°21' E 002°09'0 0.0
2018-Apr-12 09:01N 41°21' E 002°09'0 0.0
2018-Apr-12 08:31N 41°21' E 002°09'0 0.0
2018-Apr-12 08:01N 41°21' E 002°09'0 0.0
2018-Apr-12 07:31N 41°21' E 002°09'0 0.0
2018-Apr-12 06:58N 41°21' E 002°09'0 0.0
2018-Apr-12 06:28N 41°21' E 002°09'0 0.0
2018-Apr-12 06:01N 41°21' E 002°09'0 0.0
2018-Apr-12 04:13N 41°21' E 002°09'0 0.0
2018-Apr-12 04:01N 41°21' E 002°09'0 0.0
2018-Apr-12 03:31N 41°21' E 002°09'0 0.0
2018-Apr-12 03:00N 41°21' E 002°09'0 0.0
2018-Apr-12 02:31N 41°21' E 002°09'0 0.0
2018-Apr-12 02:00N 41°21' E 002°09'0 0.0
2018-Apr-12 01:30N 41°21' E 002°09'0 0.0
2018-Apr-12 01:00N 41°21' E 002°09'0 0.0
2018-Apr-12 00:31N 41°21' E 002°09'0 0.0
2018-Apr-12 00:00N 41°21' E 002°09'0 0.0
2018-Apr-11 23:30N 41°21' E 002°09'0 0.0
2018-Apr-11 23:00N 41°21' E 002°09'0 0.0
2018-Apr-11 22:30N 41°21' E 002°09'0 0.0
2018-Apr-11 22:00N 41°21' E 002°09'0 0.0
2018-Apr-11 21:30N 41°21' E 002°09'0 0.0
2018-Apr-11 21:00N 41°21' E 002°09'0 0.0
2018-Apr-11 20:30N 41°21' E 002°09'0 0.0
2018-Apr-11 20:00N 41°21' E 002°09'0 0.0
2018-Apr-11 19:30N 41°21' E 002°09'0 0.0
2018-Apr-11 19:00N 41°21' E 002°09'0 0.0
2018-Apr-11 18:31N 41°21' E 002°09'0 0.0
2018-Apr-11 18:00N 41°21' E 002°09'0 0.0
2018-Apr-11 17:30N 41°21' E 002°09'0 0.0
2018-Apr-11 16:54N 41°21' E 002°09'0 0.0
2018-Apr-11 16:30N 41°21' E 002°09'0 0.0
2018-Apr-11 16:00N 41°21' E 002°09'0 0.0
2018-Apr-11 15:30N 41°21' E 002°09'0 0.0
2018-Apr-11 15:00N 41°21' E 002°09'0 0.0
2018-Apr-11 14:30N 41°21' E 002°09'0 0.0
2018-Apr-11 14:00N 41°21' E 002°09'0 0.0
2018-Apr-11 13:30N 41°21' E 002°09'0 0.0
2018-Apr-11 13:00N 41°21' E 002°09'0 0.0
2018-Apr-11 12:30N 41°21' E 002°09'0 0.0
2018-Apr-11 12:00N 41°21' E 002°09'0 0.0
2018-Apr-11 11:30N 41°21' E 002°09'0 0.0
2018-Apr-11 11:00N 41°21' E 002°09'0 0.0
2018-Apr-11 10:30N 41°21' E 002°09'0 0.0
2018-Apr-11 10:00N 41°21' E 002°09'0 0.0
2018-Apr-11 09:30N 41°21' E 002°09'0 0.0
2018-Apr-11 09:00N 41°21' E 002°09'0 0.0
2018-Apr-11 08:30N 41°21' E 002°09'0 0.0
2018-Apr-11 08:00N 41°21' E 002°09'0 0.0
2018-Apr-11 07:30N 41°21' E 002°09'0 0.0
2018-Apr-11 07:00N 41°21' E 002°09'0 0.0
2018-Apr-11 06:30N 41°21' E 002°09'0 0.0
2018-Apr-11 06:00N 41°21' E 002°09'0 0.0
2018-Apr-11 05:30N 41°21' E 002°09'0 0.0
2018-Apr-11 05:00N 41°21' E 002°09'0 0.0
2018-Apr-11 04:30N 41°21' E 002°09'0 0.0
2018-Apr-11 04:00N 41°21' E 002°09'0 0.0
2018-Apr-11 03:30N 41°21' E 002°09'0 0.0
2018-Apr-11 03:00N 41°21' E 002°09'0 0.0
2018-Apr-11 02:30N 41°21' E 002°09'  
Track history (hours):
 
Tides and Currents Weather Stations Pressure Air Temp Water Temp Dewpoint Dewpoint Depression Visibility Wind Speed Wind Dir Waves Ship Positions

Atlant Svenja

Last reported at 2018-Apr-21 02:09 UTC. Time now 2018-Apr-22 10:54 UTC.
Position N 39°31' W 009°50'.

Length 107 m; draft 7.1 m.

Type: Cargo ship. MMSI: 538002759.

Date/timePositionNaut miles runAvg speedWind from/ knotsBaromVisibWave heightAir tempDewpointWater temp
2018-Apr-21 02:09N 39°31' W 009°50'1 8.8
2018-Apr-21 02:00N 39°29' W 009°50'4 8.5
2018-Apr-21 01:29N 39°25' W 009°50'4 8.5
2018-Apr-21 01:00N 39°21' W 009°50'4 8.6
2018-Apr-21 00:31N 39°17' W 009°50'4 8.5
2018-Apr-21 00:00N 39°12' W 009°50'4 8.5
2018-Apr-20 23:30N 39°08' W 009°50'4 8.5
2018-Apr-20 23:01N 39°04' W 009°50'4 8.5
2018-Apr-20 22:30N 38°60' W 009°50'4 8.2
2018-Apr-20 22:00N 38°56' W 009°50'4 7.7
2018-Apr-20 21:31N 38°52' W 009°50'4 7.6
2018-Apr-20 21:01N 38°48' W 009°50'4 7.5
2018-Apr-20 20:31N 38°44' W 009°50'4 7.9
2018-Apr-20 20:00N 38°40' W 009°49'4 8.1
2018-Apr-20 19:31N 38°36' W 009°48'4 7.9
2018-Apr-20 19:00N 38°32' W 009°47'4 8.1
2018-Apr-20 18:30N 38°29' W 009°46'4 8.0
2018-Apr-20 18:00N 38°25' W 009°45'4 8.1
2018-Apr-20 17:30N 38°21' W 009°43'4 8.0
2018-Apr-20 17:01N 38°17' W 009°42'5 7.8
2018-Apr-20 16:22N 38°12' W 009°41'5 7.2
2018-Apr-20 15:39N 38°07' W 009°40'5 7.2
2018-Apr-20 15:01N 38°02' W 009°39'0 7.4
2018-Apr-20 14:59N 38°02' W 009°39'4 7.5
2018-Apr-20 14:30N 37°59' W 009°38'4 7.6
2018-Apr-20 14:00N 37°55' W 009°37'4 8.2
2018-Apr-20 13:30N 37°51' W 009°36'4 8.0
2018-Apr-20 13:00N 37°47' W 009°35'4 8.6
2018-Apr-20 12:30N 37°43' W 009°34'4 8.6
2018-Apr-20 12:00N 37°38' W 009°33'216 8.2
2018-Apr-19 09:43N 35°59' W 005°33'8 8.5
2018-Apr-19 08:48N 36°01' W 005°24'2 8.1
2018-Apr-19 08:30N 36°02' W 005°21'219 8.8
2018-Apr-18 07:35N 37°14' W 001°04'1 9.8
2018-Apr-18 07:28N 37°15' W 001°02'5 9.7
2018-Apr-18 06:58N 37°18' W 000°58'4 9.6
2018-Apr-18 06:30N 37°20' W 000°53'5 9.8
2018-Apr-18 06:00N 37°24' W 000°49'5 9.8
2018-Apr-18 05:30N 37°27' W 000°44'7 9.2
2018-Apr-18 04:47N 37°31' W 000°38'3 9.3
2018-Apr-18 04:30N 37°33' W 000°35'5 9.7
2018-Apr-18 04:00N 37°37' W 000°32'5 9.8
2018-Apr-18 03:30N 37°41' W 000°29'5 9.6
2018-Apr-18 03:00N 37°45' W 000°25'5 9.5
2018-Apr-18 02:27N 37°49' W 000°22'10 9.6
2018-Apr-18 01:22N 37°58' W 000°15'3 9.6
2018-Apr-18 01:00N 38°01' W 000°12'8 9.3
2018-Apr-18 00:11N 38°07' W 000°07'4 9.3
2018-Apr-17 23:48N 38°10' W 000°05'3 9.5
2018-Apr-17 23:26N 38°13' W 000°02'8 9.6
2018-Apr-17 22:38N 38°20' E 000°03'72 8.0
2018-Apr-17 13:35N 39°31' W 000°08'1 9.1
2018-Apr-17 13:27N 39°33' W 000°09'5 9.3
2018-Apr-17 12:57N 39°37' W 000°12'  
2018-Apr-12 22:00N 40°54' E 001°44'5 9.2
2018-Apr-12 21:30N 40°58' E 001°47'5 9.3
2018-Apr-12 21:00N 41°02' E 001°50'5 9.2
2018-Apr-12 20:30N 41°06' E 001°53'5 9.4
2018-Apr-12 20:01N 41°08' E 001°58'5 9.5
2018-Apr-12 19:30N 41°11' E 002°03'5 9.6
2018-Apr-12 19:00N 41°14' E 002°09'4 8.4
2018-Apr-12 18:30N 41°18' E 002°10'3 5.6
2018-Apr-12 18:00N 41°21' E 002°09'0 0.5
2018-Apr-12 17:31N 41°21' E 002°09'0 0.0
2018-Apr-12 17:01N 41°21' E 002°09'0 0.0
2018-Apr-12 16:31N 41°21' E 002°09'0 0.0
2018-Apr-12 16:01N 41°21' E 002°09'0 0.0
2018-Apr-12 15:31N 41°21' E 002°09'0 0.0
2018-Apr-12 15:01N 41°21' E 002°09'0 0.0
2018-Apr-12 14:31N 41°21' E 002°09'0 0.0
2018-Apr-12 14:01N 41°21' E 002°09'0 0.0
2018-Apr-12 13:31N 41°21' E 002°09'0 0.0
2018-Apr-12 13:01N 41°21' E 002°09'0 0.0
2018-Apr-12 12:31N 41°21' E 002°09'0 0.0
2018-Apr-12 12:01N 41°21' E 002°09'0 0.0
2018-Apr-12 11:31N 41°21' E 002°09'0 0.0
2018-Apr-12 11:01N 41°21' E 002°09'0 0.0
2018-Apr-12 10:31N 41°21' E 002°09'0 0.0
2018-Apr-12 10:01N 41°21' E 002°09'0 0.0
2018-Apr-12 09:25N 41°21' E 002°09'0 0.0
2018-Apr-12 09:01N 41°21' E 002°09'0 0.0
2018-Apr-12 08:31N 41°21' E 002°09'0 0.0
2018-Apr-12 08:01N 41°21' E 002°09'0 0.0
2018-Apr-12 07:31N 41°21' E 002°09'0 0.0
2018-Apr-12 06:58N 41°21' E 002°09'0 0.0
2018-Apr-12 06:28N 41°21' E 002°09'0 0.0
2018-Apr-12 06:01N 41°21' E 002°09'0 0.0
2018-Apr-12 04:13N 41°21' E 002°09'0 0.0
2018-Apr-12 04:01N 41°21' E 002°09'0 0.0
2018-Apr-12 03:31N 41°21' E 002°09'0 0.0
2018-Apr-12 03:00N 41°21' E 002°09'0 0.0
2018-Apr-12 02:31N 41°21' E 002°09'0 0.0
2018-Apr-12 02:00N 41°21' E 002°09'0 0.0
2018-Apr-12 01:30N 41°21' E 002°09'0 0.0
2018-Apr-12 01:00N 41°21' E 002°09'0 0.0
2018-Apr-12 00:31N 41°21' E 002°09'0 0.0
2018-Apr-12 00:00N 41°21' E 002°09'0 0.0
2018-Apr-11 23:30N 41°21' E 002°09'0 0.0
2018-Apr-11 23:00N 41°21' E 002°09'0 0.0
2018-Apr-11 22:30N 41°21' E 002°09'0 0.0
2018-Apr-11 22:00N 41°21' E 002°09'0 0.0
2018-Apr-11 21:30N 41°21' E 002°09'0 0.0
2018-Apr-11 21:00N 41°21' E 002°09'0 0.0
2018-Apr-11 20:30N 41°21' E 002°09'0 0.0
2018-Apr-11 20:00N 41°21' E 002°09'0 0.0
2018-Apr-11 19:30N 41°21' E 002°09'0 0.0
2018-Apr-11 19:00N 41°21' E 002°09'0 0.0
2018-Apr-11 18:31N 41°21' E 002°09'0 0.0
2018-Apr-11 18:00N 41°21' E 002°09'0 0.0
2018-Apr-11 17:30N 41°21' E 002°09'0 0.0
2018-Apr-11 16:54N 41°21' E 002°09'0 0.0
2018-Apr-11 16:30N 41°21' E 002°09'0 0.0
2018-Apr-11 16:00N 41°21' E 002°09'0 0.0
2018-Apr-11 15:30N 41°21' E 002°09'0 0.0
2018-Apr-11 15:00N 41°21' E 002°09'0 0.0
2018-Apr-11 14:30N 41°21' E 002°09'0 0.0
2018-Apr-11 14:00N 41°21' E 002°09'0 0.0
2018-Apr-11 13:30N 41°21' E 002°09'0 0.0
2018-Apr-11 13:00N 41°21' E 002°09'0 0.0
2018-Apr-11 12:30N 41°21' E 002°09'0 0.0
2018-Apr-11 12:00N 41°21' E 002°09'0 0.0
2018-Apr-11 11:30N 41°21' E 002°09'0 0.0
2018-Apr-11 11:00N 41°21' E 002°09'0 0.0
2018-Apr-11 10:30N 41°21' E 002°09'0 0.0
2018-Apr-11 10:00N 41°21' E 002°09'0 0.0
2018-Apr-11 09:30N 41°21' E 002°09'0 0.0
2018-Apr-11 09:00N 41°21' E 002°09'0 0.0
2018-Apr-11 08:30N 41°21' E 002°09'0 0.0
2018-Apr-11 08:00N 41°21' E 002°09'0 0.0
2018-Apr-11 07:30N 41°21' E 002°09'0 0.0
2018-Apr-11 07:00N 41°21' E 002°09'0 0.0
2018-Apr-11 06:30N 41°21' E 002°09'0 0.0
2018-Apr-11 06:00N 41°21' E 002°09'0 0.0
2018-Apr-11 05:30N 41°21' E 002°09'0 0.0
2018-Apr-11 05:00N 41°21' E 002°09'0 0.0
2018-Apr-11 04:30N 41°21' E 002°09'0 0.0
2018-Apr-11 04:00N 41°21' E 002°09'0 0.0
2018-Apr-11 03:30N 41°21' E 002°09'0 0.0
2018-Apr-11 03:00N 41°21' E 002°09'0 0.0
2018-Apr-11 02:30N 41°21' E 002°09'  

Dump ship's entire track history